Time;durP1;ratioP1;P1;durP2;ratioP2;P2;SDS_P1;SDS_P2;PMS_P1;PMS_P2;Temp;Humidity;BMP_temperature;BMP_pressure;BME280_temperature;BME280_humidity;BME280_pressure;Samples;Min_cycle;Max_cycle;Signal;HPM_P1;HPM_P2
2021/12/27 00:00:57;;;;;;;46.17;19.43;;;;;;;-2.33;45.70;99353.78;1771642;79;21394;-62
2021/12/27 00:03:24;;;;;;;37.60;18.37;;;;;;;-2.29;45.80;99360.92;1776648;79;21050;-64
2021/12/27 00:05:51;;;;;;;40.40;17.73;;;;;;;-2.26;45.86;99359.44;1785774;79;21067;-61
2021/12/27 00:08:19;;;;;;;30.55;15.20;;;;;;;-2.22;45.97;99364.86;1790045;79;36734;-64
2021/12/27 00:10:46;;;;;;;34.53;15.77;;;;;;;-2.14;46.11;99358.71;1792146;79;21129;-62
2021/12/27 00:13:12;;;;;;;33.17;16.80;;;;;;;-2.08;46.29;99363.07;1787444;79;20970;-63
2021/12/27 00:15:42;;;;;;;30.90;16.07;;;;;;;-1.95;46.28;99370.97;1796028;79;21292;-62
2021/12/27 00:18:11;;;;;;;29.53;16.17;;;;;;;-1.85;46.14;99369.45;1782180;79;20979;-60
2021/12/27 00:20:38;;;;;;;32.73;16.83;;;;;;;-1.75;45.95;99367.14;1784769;79;21450;-63
2021/12/27 00:23:05;;;;;;;33.23;15.73;;;;;;;-1.70;45.87;99371.14;1795626;79;20888;-62
2021/12/27 00:25:32;;;;;;;29.00;16.40;;;;;;;-1.62;45.81;99369.34;1804376;78;20915;-63
2021/12/27 00:28:00;;;;;;;32.20;14.73;;;;;;;-1.60;45.74;99370.08;1804240;78;20883;-62
2021/12/27 00:30:27;;;;;;;30.17;14.67;;;;;;;-1.59;45.68;99375.19;1794745;78;20955;-63
2021/12/27 00:32:53;;;;;;;30.67;14.77;;;;;;;-1.62;45.59;99373.26;1806427;78;20978;-60
2021/12/27 00:35:22;;;;;;;32.03;14.37;;;;;;;-1.67;45.73;99378.77;1800008;78;21491;-63
2021/12/27 00:37:48;;;;;;;25.97;14.73;;;;;;;-1.69;45.80;99371.95;1813441;78;20963;-62
2021/12/27 00:40:16;;;;;;;32.43;15.03;;;;;;;-1.71;45.94;99368.14;1799565;79;20933;-62
2021/12/27 00:42:43;;;;;;;31.80;14.00;;;;;;;-1.68;46.04;99371.03;1809253;78;21488;-62
2021/12/27 00:45:09;;;;;;;27.60;14.23;;;;;;;-1.69;46.07;99376.70;1807255;79;20914;-62
2021/12/27 00:47:36;;;;;;;41.20;17.70;;;;;;;-1.69;46.15;99380.61;1803656;78;21113;-63
2021/12/27 00:50:03;;;;;;;37.33;17.27;;;;;;;-1.65;45.55;99372.98;1805640;78;21449;-61
2021/12/27 00:52:32;;;;;;;29.20;15.67;;;;;;;-1.72;45.37;99378.20;1808491;78;20962;-59
2021/12/27 00:54:58;;;;;;;32.03;15.63;;;;;;;-1.85;45.29;99372.06;1808381;79;20934;-64
2021/12/27 00:57:25;;;;;;;29.37;14.40;;;;;;;-1.98;45.43;99376.36;1787791;78;20927;-64
2021/12/27 00:59:51;;;;;;;27.03;14.63;;;;;;;-2.07;45.70;99376.95;1806351;79;21131;-60
2021/12/27 01:02:17;;;;;;;31.07;15.30;;;;;;;-2.08;45.60;99380.47;1806375;78;20898;-61
2021/12/27 01:04:44;;;;;;;30.30;15.40;;;;;;;-2.07;45.39;99373.88;1808807;78;21458;-63
2021/12/27 01:07:10;;;;;;;32.00;15.37;;;;;;;-2.11;45.31;99378.08;1808069;79;20926;-62
2021/12/27 01:10:05;;;;;;;30.70;14.97;;;;;;;-2.16;45.32;99368.37;1810746;78;21058;-60
2021/12/27 01:12:33;;;;;;;30.37;16.20;;;;;;;-2.28;45.63;99370.42;1804518;79;21211;-63
2021/12/27 01:17:41;;;;;;;32.38;16.73;;;;;;;-2.26;45.51;99377.22;1800726;78;20887;-63
2021/12/27 01:20:11;;;;;;;33.67;16.30;;;;;;;-2.34;45.32;99378.60;1801287;79;20898;-61
2021/12/27 01:22:38;;;;;;;31.07;15.80;;;;;;;-2.40;45.52;99373.33;1797070;79;21435;-65
2021/12/27 01:25:07;;;;;;;29.77;16.30;;;;;;;-2.38;45.80;99371.45;1801414;78;21109;-60
2021/12/27 01:27:34;;;;;;;30.43;15.83;;;;;;;-2.25;45.82;99371.09;1789344;79;20922;-62
2021/12/27 01:30:00;;;;;;;31.30;14.70;;;;;;;-2.16;45.82;99366.61;1783331;79;20922;-62
2021/12/27 01:32:33;;;;;;;27.33;14.77;;;;;;;-2.18;45.90;99373.69;1782175;79;21406;-63
2021/12/27 01:34:57;;;;;;;27.07;13.70;;;;;;;-2.23;46.20;99370.98;1788440;79;20946;-61
2021/12/27 01:37:23;;;;;;;36.83;16.63;;;;;;;-2.23;46.35;99374.44;1799182;79;21102;-61
2021/12/27 01:39:49;;;;;;;32.17;17.43;;;;;;;-2.17;46.18;99373.23;1796917;79;21511;-60
2021/12/27 01:42:16;;;;;;;43.90;18.13;;;;;;;-2.25;45.64;99366.34;1792797;79;20947;-62
2021/12/27 01:44:42;;;;;;;36.73;19.57;;;;;;;-2.33;45.66;99370.71;1792030;79;21492;-62
2021/12/27 01:47:09;;;;;;;48.37;21.27;;;;;;;-2.32;45.60;99368.46;1797312;79;20880;-64
2021/12/27 01:49:37;;;;;;;49.13;22.37;;;;;;;-2.32;45.60;99379.38;1791941;79;21118;-59
2021/12/27 01:52:05;;;;;;;48.27;19.30;;;;;;;-2.36;45.47;99381.77;1794143;79;20976;-64
2021/12/27 01:54:33;;;;;;;42.43;20.43;;;;;;;-2.57;45.73;99382.13;1793364;79;21466;-63
2021/12/27 01:57:00;;;;;;;36.67;17.63;;;;;;;-2.60;46.04;99377.09;1801861;79;20955;-65
2021/12/27 01:59:27;;;;;;;36.17;17.93;;;;;;;-2.58;46.27;99379.14;1787397;79;21014;-61
2021/12/27 02:01:54;;;;;;;43.93;21.87;;;;;;;-2.59;46.45;99380.09;1791762;79;21137;-63
2021/12/27 02:04:20;;;;;;;46.07;22.90;;;;;;;-2.56;46.41;99381.22;1796847;79;21502;-64
2021/12/27 02:06:49;;;;;;;50.17;24.23;;;;;;;-2.57;46.37;99378.69;1794631;79;20860;-64
2021/12/27 02:09:21;;;;;;;46.23;23.53;;;;;;;-2.49;46.19;99377.77;1800336;79;20919;-64
2021/12/27 02:11:50;;;;;;;55.93;23.73;;;;;;;-2.43;45.93;99378.71;1803303;79;20915;-64
2021/12/27 02:14:15;;;;;;;59.07;24.70;;;;;;;-2.44;45.86;99381.39;1794409;79;21591;-61
2021/12/27 02:16:43;;;;;;;49.90;23.83;;;;;;;-2.45;45.78;99383.16;1799155;79;21005;-64
2021/12/27 02:19:09;;;;;;;58.40;24.93;;;;;;;-2.44;45.74;99382.23;1793206;79;20906;-63
2021/12/27 02:21:36;;;;;;;66.87;27.93;;;;;;;-2.36;45.76;99379.17;1794750;79;20943;-62
2021/12/27 02:24:05;;;;;;;82.93;31.93;;;;;;;-2.31;45.69;99374.52;1796884;79;21504;-64
2021/12/27 02:26:31;;;;;;;99.33;36.93;;;;;;;-2.29;45.60;99377.41;1793256;79;21784;-62
2021/12/27 02:28:58;;;;;;;98.23;36.83;;;;;;;-2.20;45.18;99377.32;1790722;79;20860;-64
2021/12/27 02:31:24;;;;;;;144.00;49.43;;;;;;;-2.30;45.33;99371.84;1795788;79;20880;-62
2021/12/27 02:33:51;;;;;;;147.57;49.73;;;;;;;-2.34;45.36;99378.60;1793794;79;21095;-62
2021/12/27 02:36:18;;;;;;;102.57;38.63;;;;;;;-2.42;45.37;99379.56;1782258;79;20884;-63
2021/12/27 02:38:45;;;;;;;82.17;32.73;;;;;;;-2.46;45.40;99380.20;1792704;79;21508;-61
2021/12/27 02:41:11;;;;;;;64.13;27.13;;;;;;;-2.46;45.46;99375.44;1795251;79;21010;-61
2021/12/27 02:43:41;;;;;;;58.53;26.00;;;;;;;-2.44;45.43;99374.42;1791314;79;21015;-62
2021/12/27 02:46:09;;;;;;;54.40;23.00;;;;;;;-2.45;45.49;99370.13;1798971;79;21422;-63
2021/12/27 02:48:46;;;;;;;58.77;24.73;;;;;;;-2.41;45.43;99369.48;1788817;79;20907;-64
2021/12/27 02:51:15;;;;;;;68.83;24.30;;;;;;;-2.40;45.54;99371.17;1797151;79;21125;-64
2021/12/27 02:53:41;;;;;;;61.43;25.00;;;;;;;-2.36;45.60;99375.27;1796224;79;20995;-60
2021/12/27 02:56:08;;;;;;;45.47;21.77;;;;;;;-2.35;45.66;99379.09;1787610;79;20856;-60
2021/12/27 02:58:35;;;;;;;48.07;22.30;;;;;;;-2.33;45.59;99378.53;1788753;79;20876;-63
2021/12/27 03:01:10;;;;;;;55.80;24.60;;;;;;;-2.33;45.60;99376.39;1785075;79;21015;-64
2021/12/27 03:03:36;;;;;;;58.48;26.50;;;;;;;-2.34;45.52;99376.00;1798114;79;25105;-63
2021/12/27 03:06:05;;;;;;;61.17;26.80;;;;;;;-2.38;45.39;99376.67;1796949;79;20966;-65
2021/12/27 03:08:33;;;;;;;68.13;28.40;;;;;;;-2.45;45.34;99377.94;1800411;79;20997;-65
2021/12/27 03:11:00;;;;;;;61.97;27.60;;;;;;;-2.56;45.45;99377.31;1779908;79;21432;-62
2021/12/27 03:13:32;;;;;;;65.43;27.87;;;;;;;-2.61;45.46;99372.80;1782012;79;20880;-64
2021/12/27 03:16:06;;;;;;;67.00;28.33;;;;;;;-2.67;45.51;99373.19;1796338;79;21502;-64
2021/12/27 03:18:35;;;;;;;75.83;32.28;;;;;;;-2.71;45.56;99383.39;1792270;79;21059;-62
2021/12/27 03:21:03;;;;;;;79.87;34.00;;;;;;;-2.71;45.58;99387.30;1795658;79;21505;-61
2021/12/27 03:23:29;;;;;;;88.50;35.20;;;;;;;-2.67;45.57;99382.77;1800535;79;20961;-63
2021/12/27 03:25:55;;;;;;;88.57;35.83;;;;;;;-2.61;45.48;99380.62;1791052;79;20915;-63
2021/12/27 03:28:21;;;;;;;81.70;35.33;;;;;;;-2.59;45.28;99385.30;1792088;79;22325;-62
2021/12/27 03:30:48;;;;;;;92.50;34.27;;;;;;;-2.64;45.21;99385.19;1795917;79;21640;-63
2021/12/27 03:33:15;;;;;;;87.00;34.17;;;;;;;-2.70;45.22;99382.94;1793622;79;21454;-63
2021/12/27 03:35:51;;;;;;;78.63;33.40;;;;;;;-2.83;45.33;99388.02;1794105;79;21023;-61
2021/12/27 03:38:11;;;;;;;90.63;34.87;;;;;;;-2.86;45.16;99378.23;1798474;79;20999;-63
2021/12/27 03:40:38;;;;;;;85.77;35.10;;;;;;;-3.03;45.14;99390.10;1799753;79;21117;-62
2021/12/27 03:43:05;;;;;;;86.27;34.83;;;;;;;-3.14;45.30;99387.66;1795990;79;20954;-61
2021/12/27 03:45:35;;;;;;;88.20;36.70;;;;;;;-3.17;45.45;99392.18;1799246;79;21537;-59
2021/12/27 03:48:04;;;;;;;65.83;31.97;;;;;;;-3.14;45.56;99398.52;1790433;79;21521;-63
2021/12/27 03:50:31;;;;;;;53.83;27.43;;;;;;;-3.08;45.76;99398.64;1787919;79;20950;-65
2021/12/27 03:52:58;;;;;;;50.63;23.80;;;;;;;-3.06;45.88;99397.63;1800000;79;21061;-63
2021/12/27 03:55:25;;;;;;;60.03;26.77;;;;;;;-3.08;45.91;99398.18;1785935;79;21058;-62
2021/12/27 03:57:53;;;;;;;59.67;24.93;;;;;;;-3.14;45.98;99392.86;1780657;79;21595;-64
2021/12/27 04:02:56;;;;;;;78.53;32.43;;;;;;;-3.12;45.96;99399.27;1779627;79;21442;-64
2021/12/27 04:05:22;;;;;;;67.40;28.13;;;;;;;-3.08;46.00;99403.38;1791510;79;21124;-64
2021/12/27 04:07:57;;;;;;;59.23;25.57;;;;;;;-3.06;46.02;99407.19;1803130;79;21535;-63
2021/12/27 04:10:17;;;;;;;55.27;23.57;;;;;;;-3.06;46.00;99410.64;1791340;79;20943;-64
2021/12/27 04:12:44;;;;;;;50.20;21.90;;;;;;;-3.08;45.96;99403.84;1798087;79;20919;-62
2021/12/27 04:15:11;;;;;;;49.87;21.37;;;;;;;-3.16;46.30;99409.03;1796673;79;20958;-63
2021/12/27 04:17:37;;;;;;;49.03;23.10;;;;;;;-3.23;46.50;99402.47;1802826;79;21825;-64
2021/12/27 04:20:05;;;;;;;45.20;21.37;;;;;;;-3.20;46.45;99400.16;1795053;79;20974;-62
2021/12/27 04:22:33;;;;;;;54.47;22.63;;;;;;;-3.14;46.36;99399.36;1737537;82;20935;-64
2021/12/27 04:25:01;;;;;;;43.23;22.13;;;;;;;-3.03;46.20;99405.27;1754398;80;21007;-65
2021/12/27 04:27:27;;;;;;;54.17;22.33;;;;;;;-2.93;46.07;99409.02;1709245;82;21018;-62
2021/12/27 04:29:54;;;;;;;45.47;22.47;;;;;;;-2.88;46.09;99405.68;1751738;79;21037;-64
2021/12/27 04:32:20;;;;;;;49.33;24.73;;;;;;;-2.82;46.03;99397.98;1791337;78;21599;-63
2021/12/27 04:34:47;;;;;;;50.57;23.80;;;;;;;-2.78;45.79;99407.28;1792230;78;21437;-61
2021/12/27 04:37:13;;;;;;;52.60;23.33;;;;;;;-2.80;45.68;99406.53;1798868;79;20958;-62
2021/12/27 04:39:39;;;;;;;48.67;22.50;;;;;;;-2.80;45.65;99411.74;1795355;78;20947;-64
2021/12/27 04:42:08;;;;;;;53.93;25.37;;;;;;;-2.84;45.57;99416.28;1798232;78;21139;-61
2021/12/27 04:44:34;;;;;;;52.63;25.77;;;;;;;-2.91;45.51;99413.66;1731036;82;20946;-64
2021/12/27 04:47:01;;;;;;;56.60;26.40;;;;;;;-2.97;45.56;99415.79;1730146;82;20931;-64
2021/12/27 04:49:27;;;;;;;59.97;26.30;;;;;;;-3.05;45.56;99410.99;1746604;80;21619;-61
2021/12/27 04:51:53;;;;;;;53.43;25.10;;;;;;;-3.10;45.62;99407.81;1747148;82;20987;-62
2021/12/27 04:54:20;;;;;;;61.60;26.90;;;;;;;-3.14;45.69;99406.33;1741359;82;23125;-64
2021/12/27 04:56:47;;;;;;;59.03;26.90;;;;;;;-3.14;45.71;99411.53;1733677;82;21437;-64
2021/12/27 04:59:13;;;;;;;54.27;23.93;;;;;;;-3.17;45.84;99411.24;1743373;81;20978;-62
2021/12/27 05:01:40;;;;;;;52.30;24.13;;;;;;;-3.23;46.04;99405.07;1739941;82;20950;-61
2021/12/27 05:04:06;;;;;;;56.50;25.77;;;;;;;-3.23;46.06;99405.07;1738352;81;21426;-61
2021/12/27 05:06:32;;;;;;;57.10;24.80;;;;;;;-3.24;46.07;99406.02;1734678;82;21139;-61
2021/12/27 05:09:00;;;;;;;55.10;25.37;;;;;;;-3.26;46.05;99407.02;1740196;81;21145;-62
2021/12/27 05:11:26;;;;;;;53.87;23.37;;;;;;;-3.34;46.15;99413.12;1733234;82;20959;-65
2021/12/27 05:13:53;;;;;;;50.63;24.07;;;;;;;-3.38;46.21;99407.69;1755582;80;20928;-62
2021/12/27 05:16:21;;;;;;;52.03;24.73;;;;;;;-3.44;46.42;99409.35;1729713;81;21689;-65
2021/12/27 05:18:47;;;;;;;41.97;21.57;;;;;;;-3.39;46.43;99421.16;1794767;79;21138;-61
2021/12/27 05:21:14;;;;;;;43.97;20.47;;;;;;;-3.27;46.20;99415.28;1794472;78;20967;-61
2021/12/27 05:23:42;;;;;;;43.63;20.90;;;;;;;-3.20;46.04;99424.42;1796879;78;21052;-65
2021/12/27 05:26:08;;;;;;;37.27;18.73;;;;;;;-3.15;45.89;99423.70;1801149;79;21415;-62
2021/12/27 05:28:35;;;;;;;28.70;16.33;;;;;;;-3.11;45.84;99426.98;1803521;79;20927;-60
2021/12/27 05:31:01;;;;;;;31.80;16.70;;;;;;;-3.12;45.93;99431.34;1785559;79;21072;-60
2021/12/27 05:33:28;;;;;;;30.93;17.27;;;;;;;-3.29;46.38;99431.91;1791459;79;21410;-63
2021/12/27 05:35:54;;;;;;;36.83;18.03;;;;;;;-3.34;46.50;99427.42;1789941;79;20980;-64
2021/12/27 05:38:20;;;;;;;27.20;15.87;;;;;;;-3.46;46.75;99437.18;1788848;79;20998;-62
2021/12/27 05:40:47;;;;;;;31.50;17.43;;;;;;;-3.55;46.99;99439.00;1794437;79;20902;-60
2021/12/27 05:43:13;;;;;;;30.23;16.43;;;;;;;-3.59;47.10;99444.81;1793176;79;21170;-63
2021/12/27 05:45:39;;;;;;;31.90;17.47;;;;;;;-3.52;47.08;99453.14;1796004;79;20960;-61
2021/12/27 05:48:06;;;;;;;27.97;15.93;;;;;;;-3.48;47.00;99442.48;1788591;79;21034;-62
2021/12/27 05:50:33;;;;;;;26.37;14.17;;;;;;;-3.40;46.94;99448.56;1796121;79;20939;-62
2021/12/27 05:52:59;;;;;;;31.27;14.63;;;;;;;-3.31;46.78;99447.58;1792893;79;21404;-61
2021/12/27 05:55:26;;;;;;;27.13;14.40;;;;;;;-3.18;46.55;99447.28;1791047;79;21136;-62
2021/12/27 05:57:52;;;;;;;28.20;15.83;;;;;;;-3.02;46.32;99450.35;1780701;79;20939;-61
2021/12/27 06:00:19;;;;;;;35.23;18.00;;;;;;;-3.04;46.27;99447.82;1796836;79;20966;-63
2021/12/27 06:02:47;;;;;;;39.20;20.53;;;;;;;-3.13;46.44;99452.25;1793159;79;21076;-61
2021/12/27 06:05:15;;;;;;;39.43;20.57;;;;;;;-3.15;46.45;99449.72;1799430;79;21038;-61
2021/12/27 06:07:42;;;;;;;36.23;18.00;;;;;;;-3.20;46.42;99452.20;1801002;79;21090;-61
2021/12/27 06:10:09;;;;;;;26.70;13.90;;;;;;;-3.27;46.57;99456.91;1794096;79;22478;-61
2021/12/27 06:12:35;;;;;;;25.10;12.00;;;;;;;-3.31;46.88;99459.78;1789658;79;20893;-61
2021/12/27 06:15:02;;;;;;;21.57;11.10;;;;;;;-3.31;47.09;99462.38;1795776;79;20971;-64
2021/12/27 06:17:31;;;;;;;21.83;10.43;;;;;;;-3.30;47.15;99465.34;1795460;79;20939;-62
2021/12/27 06:19:57;;;;;;;25.23;11.50;;;;;;;-3.26;47.14;99463.78;1778986;79;21148;-65
2021/12/27 06:22:23;;;;;;;17.80;10.63;;;;;;;-3.26;47.21;99462.97;1801221;79;20931;-64
2021/12/27 06:24:49;;;;;;;24.07;11.63;;;;;;;-3.26;47.28;99470.28;1801361;79;20961;-63
2021/12/27 06:27:16;;;;;;;20.70;11.20;;;;;;;-3.15;47.13;99472.30;1795840;79;20987;-64
2021/12/27 06:29:42;;;;;;;18.03;10.17;;;;;;;-2.89;47.24;99470.38;1754433;81;21519;-63
2021/12/27 06:32:13;;;;;;;18.77;10.47;;;;;;;-2.59;47.45;99468.65;1738136;82;21135;-65
2021/12/27 06:34:37;;;;;;;27.17;15.07;;;;;;;-2.12;47.38;99467.16;1730103;80;20884;-63
2021/12/27 06:37:04;;;;;;;32.90;14.50;;;;;;;-1.66;46.99;99477.41;1720024;82;21007;-65
2021/12/27 06:39:30;;;;;;;31.70;15.53;;;;;;;-1.26;46.67;99470.94;1744308;80;20972;-61
2021/12/27 06:41:57;;;;;;;32.30;13.73;;;;;;;-0.89;46.38;99478.58;1752820;81;20848;-64
2021/12/27 06:44:23;;;;;;;27.82;13.83;;;;;;;-0.63;45.90;99470.36;1730488;80;21786;-62
2021/12/27 06:46:49;;;;;;;27.80;13.10;;;;;;;-0.33;45.58;99468.31;1759199;81;20986;-66
2021/12/27 06:49:19;;;;;;;29.15;13.95;;;;;;;0.09;45.34;99468.97;1738123;82;20899;-65
2021/12/27 06:51:47;;;;;;;23.80;13.10;;;;;;;0.46;44.73;99470.73;1726742;82;20904;-63
2021/12/27 06:54:14;;;;;;;25.25;13.60;;;;;;;0.68;44.05;99468.77;1792799;79;21493;-65
2021/12/27 06:56:40;;;;;;;26.60;13.85;;;;;;;0.99;43.44;99467.75;1796150;79;21047;-64
2021/12/27 06:59:06;;;;;;;28.92;14.80;;;;;;;1.33;42.92;99466.13;1790509;79;21457;-65
2021/12/27 07:01:33;;;;;;;27.40;13.15;;;;;;;1.68;42.38;99476.64;1790844;79;21014;-63
2021/12/27 07:03:59;;;;;;;23.62;12.78;;;;;;;2.14;42.24;99472.20;1800768;79;20943;-62
2021/12/27 07:06:25;;;;;;;19.07;12.45;;;;;;;2.78;41.50;99465.41;1799676;79;20907;-61
2021/12/27 07:08:53;;;;;;;25.77;12.85;;;;;;;3.32;40.74;99465.87;1789679;79;21509;-65
2021/12/27 07:11:20;;;;;;;20.77;13.48;;;;;;;3.80;39.36;99460.52;1791350;79;21135;-64
2021/12/27 07:13:47;;;;;;;23.42;14.07;;;;;;;4.51;38.94;99455.70;1797383;79;20931;-61
2021/12/27 07:16:13;;;;;;;21.40;13.38;;;;;;;5.48;37.60;99453.63;1801949;79;20984;-63
2021/12/27 07:18:41;;;;;;;20.85;11.38;;;;;;;6.04;36.14;99453.27;1797826;79;20888;-66
2021/12/27 07:21:08;;;;;;;16.48;10.40;;;;;;;6.38;35.11;99448.80;1795976;79;21159;-63
2021/12/27 07:23:34;;;;;;;17.50;11.50;;;;;;;7.01;34.63;99442.66;1800599;79;21085;-65
2021/12/27 07:26:01;;;;;;;20.00;11.28;;;;;;;7.79;33.71;99445.89;1798816;79;21414;-64
2021/12/27 07:28:27;;;;;;;24.52;12.43;;;;;;;8.99;32.69;99430.84;1791335;79;20938;-61
2021/12/27 07:30:54;;;;;;;16.67;12.20;;;;;;;10.10;30.96;99439.56;1798434;79;20907;-61
2021/12/27 07:33:21;;;;;;;18.87;12.70;;;;;;;11.07;29.80;99426.33;1801673;79;21102;-61
2021/12/27 07:35:48;;;;;;;18.95;12.82;;;;;;;12.08;28.43;99437.59;1791494;79;21719;-66
2021/12/27 07:38:14;;;;;;;18.75;13.43;;;;;;;12.79;26.79;99426.84;1799670;79;20916;-62
2021/12/27 07:40:41;;;;;;;19.82;14.35;;;;;;;12.82;25.00;99427.80;1788044;79;20891;-65
2021/12/27 07:43:07;;;;;;;25.45;16.97;;;;;;;12.87;25.07;99424.06;1795411;79;20871;-64
2021/12/27 07:45:34;;;;;;;18.07;15.68;;;;;;;13.33;24.74;99424.13;1796711;79;21141;-63
2021/12/27 07:48:00;;;;;;;21.57;15.60;;;;;;;14.07;24.39;99429.98;1795356;79;20958;-65
2021/12/27 07:50:27;;;;;;;20.52;15.78;;;;;;;14.74;23.69;99428.40;1791162;79;20931;-65
2021/12/27 07:52:55;;;;;;;23.92;17.50;;;;;;;15.57;23.05;99429.13;1798634;79;20991;-67
2021/12/27 07:55:21;;;;;;;26.35;17.70;;;;;;;16.22;22.02;99422.98;1790813;79;21050;-67
2021/12/27 07:57:47;;;;;;;18.05;14.63;;;;;;;16.70;21.33;99421.70;1796649;79;21301;-73
2021/12/27 08:00:15;;;;;;;18.70;14.80;;;;;;;15.58;20.53;99423.58;1794335;79;20923;-68
2021/12/27 08:02:44;;;;;;;23.67;16.20;;;;;;;15.03;21.04;99427.81;1793725;79;21003;-70
2021/12/27 08:05:11;;;;;;;21.95;16.10;;;;;;;15.13;20.78;99426.41;1791168;79;20991;-70
2021/12/27 08:07:37;;;;;;;23.35;15.85;;;;;;;14.94;19.97;99424.47;1788897;79;21544;-72
2021/12/27 08:10:06;;;;;;;15.90;13.83;;;;;;;13.83;20.60;99430.37;1787555;79;21122;-70
2021/12/27 08:12:35;;;;;;;16.25;13.35;;;;;;;13.16;21.32;99429.39;1789038;79;21027;-72
2021/12/27 08:15:03;;;;;;;17.55;13.22;;;;;;;12.82;21.69;99428.64;1792532;79;20883;-73
2021/12/27 08:17:29;;;;;;;16.25;13.70;;;;;;;12.45;22.21;99431.89;1783067;79;20903;-72
2021/12/27 08:19:56;;;;;;;16.45;13.83;;;;;;;12.53;22.71;99432.64;1797056;79;21038;-73
2021/12/27 08:22:22;;;;;;;17.75;14.58;;;;;;;13.26;22.47;99429.92;1801838;79;21512;-71
2021/12/27 08:24:50;;;;;;;20.48;15.72;;;;;;;14.16;21.87;99424.28;1796695;79;21051;-68
2021/12/27 08:27:17;;;;;;;16.05;13.22;;;;;;;15.22;21.25;99417.69;1788845;79;20871;-67
2021/12/27 08:29:43;;;;;;;20.15;13.68;;;;;;;15.80;20.15;99417.54;1791648;79;20992;-68
2021/12/27 08:32:10;;;;;;;19.87;15.13;;;;;;;15.83;19.87;99423.30;1784939;79;21480;-68
2021/12/27 08:34:36;;;;;;;22.65;15.48;;;;;;;16.25;19.90;99427.94;1786429;79;21009;-63
2021/12/27 08:37:04;;;;;;;19.75;16.17;;;;;;;16.51;19.39;99418.51;1791352;79;21489;-65
2021/12/27 08:39:30;;;;;;;20.68;16.37;;;;;;;16.74;19.23;99419.44;1785720;79;20979;-66
2021/12/27 08:41:57;;;;;;;21.55;16.37;;;;;;;16.83;18.61;99415.47;1794006;79;20884;-63
2021/12/27 08:44:24;;;;;;;20.72;15.78;;;;;;;16.67;18.55;99408.70;1778736;79;21028;-64
2021/12/27 08:46:50;;;;;;;22.80;14.78;;;;;;;16.08;19.53;99410.11;1789187;79;21135;-71
2021/12/27 08:49:16;;;;;;;18.67;13.68;;;;;;;16.37;18.94;99396.22;1793301;79;20990;-68
2021/12/27 08:51:43;;;;;;;16.70;12.70;;;;;;;16.12;19.22;99395.23;1786364;79;20935;-65
2021/12/27 08:54:10;;;;;;;13.72;10.98;;;;;;;16.18;18.95;99398.95;1784593;79;21944;-65
2021/12/27 08:56:38;;;;;;;12.28;10.20;;;;;;;15.93;19.10;99410.30;1778025;79;21039;-62
2021/12/27 08:59:05;;;;;;;11.50;9.08;;;;;;;15.50;19.64;99402.33;1786046;79;21184;-59
2021/12/27 09:01:33;;;;;;;15.28;11.05;;;;;;;14.86;20.26;99408.56;1739301;81;21024;-65
2021/12/27 09:03:59;;;;;;;17.62;11.03;;;;;;;15.16;19.97;99405.92;1785667;79;20979;-64
2021/12/27 09:06:25;;;;;;;13.30;10.45;;;;;;;14.71;20.33;99402.02;1794393;79;20892;-65
2021/12/27 09:08:53;;;;;;;15.30;11.70;;;;;;;14.98;20.40;99404.81;1792554;79;21536;-65
2021/12/27 09:11:20;;;;;;;11.97;9.43;;;;;;;14.98;20.26;99412.34;1744641;81;21141;-64
2021/12/27 09:13:50;;;;;;;8.75;7.20;;;;;;;14.31;20.24;99409.52;1783183;79;20933;-62
2021/12/27 09:16:17;;;;;;;7.15;5.53;;;;;;;13.34;21.04;99399.58;1780867;79;21457;-61
2021/12/27 09:18:45;;;;;;;8.30;5.85;;;;;;;13.12;21.38;99401.89;1790740;79;20967;-66
2021/12/27 09:21:11;;;;;;;6.42;5.20;;;;;;;12.83;21.41;99405.41;1790520;79;21011;-67
2021/12/27 09:23:38;;;;;;;8.08;6.45;;;;;;;12.80;21.77;99402.61;1780237;79;21138;-69
2021/12/27 09:26:04;;;;;;;8.75;6.30;;;;;;;13.04;21.49;99401.47;1779350;79;21131;-62
2021/12/27 09:28:32;;;;;;;7.62;5.75;;;;;;;13.04;21.56;99393.45;1790937;78;21089;-65
2021/12/27 09:31:01;;;;;;;9.63;5.78;;;;;;;12.79;21.79;99393.47;1788122;78;21103;-66
2021/12/27 09:33:29;;;;;;;5.90;5.05;;;;;;;12.62;21.42;99400.03;1750279;80;21062;-64
2021/12/27 09:35:55;;;;;;;7.55;5.87;;;;;;;12.33;22.18;99392.33;1729839;82;21153;-70
2021/12/27 09:38:23;;;;;;;8.63;6.42;;;;;;;12.71;22.12;99390.90;1728806;82;21073;-66
2021/12/27 09:40:49;;;;;;;8.03;6.35;;;;;;;13.03;22.08;99396.33;1729703;82;21523;-66
2021/12/27 09:43:18;;;;;;;12.15;7.45;;;;;;;13.59;21.31;99387.48;1735461;82;21053;-66
2021/12/27 09:45:47;;;;;;;8.20;6.90;;;;;;;13.32;21.31;99386.39;1744523;81;20958;-65
2021/12/27 09:48:14;;;;;;;10.65;7.58;;;;;;;13.31;21.50;99382.59;1743001;82;21893;-68
2021/12/27 09:50:45;;;;;;;8.40;7.33;;;;;;;12.88;21.80;99389.66;1740296;82;20946;-69
2021/12/27 09:53:11;;;;;;;7.70;6.92;;;;;;;12.71;22.12;99384.22;1738912;81;21020;-68
2021/12/27 09:55:38;;;;;;;8.70;6.87;;;;;;;13.28;22.03;99385.64;1741343;81;21065;-65
2021/12/27 09:58:05;;;;;;;7.58;6.65;;;;;;;13.67;21.69;99387.36;1743327;81;21046;-65
2021/12/27 10:00:34;;;;;;;8.60;7.60;;;;;;;13.91;21.36;99386.13;1734571;82;21123;-68
2021/12/27 10:03:00;;;;;;;9.20;6.95;;;;;;;14.12;21.22;99386.91;1718876;82;21015;-62
2021/12/27 10:05:29;;;;;;;9.50;7.28;;;;;;;14.47;20.97;99381.61;1789745;79;21445;-65
2021/12/27 10:07:57;;;;;;;8.93;6.47;;;;;;;14.56;20.82;99385.27;1790582;79;21033;-65
2021/12/27 10:10:23;;;;;;;7.08;6.30;;;;;;;14.26;20.73;99389.14;1787377;79;21586;-62
2021/12/27 10:12:50;;;;;;;7.87;6.50;;;;;;;13.46;21.18;99386.86;1786786;78;21147;-62
2021/12/27 10:15:20;;;;;;;10.05;7.58;;;;;;;12.89;21.90;99387.33;1791934;79;20895;-63
2021/12/27 10:17:50;;;;;;;10.65;6.92;;;;;;;12.59;22.46;99395.06;1792656;78;20960;-66
2021/12/27 10:20:28;;;;;;;7.78;6.62;;;;;;;12.76;22.30;99395.17;1791078;79;20872;-66
2021/12/27 10:22:55;;;;;;;8.85;7.00;;;;;;;13.10;21.77;99394.08;1796948;79;20983;-69
2021/12/27 10:25:24;;;;;;;9.93;6.87;;;;;;;13.01;21.77;99389.81;1790169;79;21248;-69
2021/12/27 10:27:54;;;;;;;8.20;6.42;;;;;;;12.93;21.88;99393.43;1796153;78;21516;-72
2021/12/27 10:30:23;;;;;;;8.05;6.28;;;;;;;12.58;21.67;99396.06;1803131;78;21706;-68
2021/12/27 10:33:09;;;;;;;8.30;5.95;;;;;;;11.67;22.50;99397.61;1792145;78;20986;-64
2021/12/27 10:35:40;;;;;;;8.60;6.53;;;;;;;11.03;23.01;99398.37;1793196;78;21030;-66
2021/12/27 10:38:24;;;;;;;7.72;6.83;;;;;;;10.05;24.16;99410.00;1789257;78;21132;-68
2021/12/27 10:41:00;;;;;;;8.90;7.28;;;;;;;9.34;25.17;99408.02;1794979;79;21001;-64
2021/12/27 10:43:42;;;;;;;9.13;7.22;;;;;;;9.04;25.80;99401.52;1788641;78;21054;-66
2021/12/27 10:46:16;;;;;;;9.43;6.97;;;;;;;8.63;26.25;99397.05;1784591;78;20942;-63
2021/12/27 10:48:49;;;;;;;8.70;7.08;;;;;;;8.02;26.83;99392.75;1795642;79;21001;-64
2021/12/27 10:51:15;;;;;;;10.80;6.78;;;;;;;7.61;27.52;99393.45;1757407;80;21149;-67
2021/12/27 10:53:48;;;;;;;9.38;6.62;;;;;;;7.35;28.11;99393.38;1731542;82;21140;-68
2021/12/27 10:56:15;;;;;;;8.28;6.95;;;;;;;7.23;28.33;99400.37;1733699;82;20938;-65
2021/12/27 10:58:52;;;;;;;9.15;6.47;;;;;;;6.96;28.77;99397.28;1789619;79;21057;-64
2021/12/27 11:01:19;;;;;;;;;;;;;;;6.69;29.19;99397.33;1791541;78;20930;-65
2021/12/27 11:03:49;;;;;;;8.25;6.28;;;;;;;6.52;30.15;99407.34;1792251;79;21148;-66
2021/12/27 11:06:25;;;;;;;7.47;6.03;;;;;;;6.50;29.89;99400.05;1792037;78;21508;-64
2021/12/27 11:08:52;;;;;;;9.38;6.20;;;;;;;6.49;30.02;99398.41;1708387;81;21497;-67
2021/12/27 11:11:21;;;;;;;9.33;7.17;;;;;;;6.41;30.19;99406.23;1801029;79;20891;-64
2021/12/27 11:13:49;;;;;;;9.48;6.78;;;;;;;6.35;30.88;99397.07;1802756;78;21472;-64
2021/12/27 11:16:16;;;;;;;9.40;6.05;;;;;;;6.16;31.13;99398.45;1809647;78;22065;-63
2021/12/27 11:18:43;;;;;;;9.33;6.28;;;;;;;5.86;31.55;99398.20;1797765;79;20970;-63
2021/12/27 11:21:13;;;;;;;8.55;6.58;;;;;;;5.84;31.59;99390.86;1808411;78;20959;-64
2021/12/27 11:23:41;;;;;;;10.23;6.97;;;;;;;5.78;31.71;99395.41;1808239;78;21081;-64
2021/12/27 11:26:15;;;;;;;9.25;6.05;;;;;;;5.60;32.41;99385.23;1809375;79;20918;-64
2021/12/27 11:28:43;;;;;;;8.25;6.65;;;;;;;5.57;32.49;99389.47;1801705;79;21165;-63